Time;durP1;ratioP1;P1;durP2;ratioP2;P2;SDS_P1;SDS_P2;PMS_P1;PMS_P2;Temp;Humidity;BMP_temperature;BMP_pressure;BME280_temperature;BME280_humidity;BME280_pressure;Samples;Min_cycle;Max_cycle;Signal;HPM_P1;HPM_P2
2023/11/23 00:00:21;;;;;;;17.50;6.97;;;;;;;5.48;100.00;101772.91;6275396;28;20053;-72
2023/11/23 00:03:22;;;;;;;29.75;7.53;;;;;;;5.58;100.00;101753.59;6274906;28;20049;-73
2023/11/23 00:06:24;;;;;;;19.67;7.18;;;;;;;5.61;100.00;101750.09;6274840;28;20045;-73
2023/11/23 00:09:26;;;;;;;16.30;6.72;;;;;;;5.60;100.00;101744.03;6280690;28;20071;-73
2023/11/23 00:12:30;;;;;;;15.15;6.50;;;;;;;5.61;100.00;101744.88;6272345;28;20055;-73
2023/11/23 00:15:31;;;;;;;22.80;8.10;;;;;;;5.61;100.00;101734.44;6271987;28;20052;-72
2023/11/23 00:18:32;;;;;;;19.08;7.25;;;;;;;5.59;100.00;101725.81;6267039;28;20045;-73
2023/11/23 00:21:34;;;;;;;19.55;7.25;;;;;;;5.61;100.00;101726.63;6274592;28;20049;-72
2023/11/23 00:24:35;;;;;;;16.08;7.38;;;;;;;5.63;100.00;101713.56;6274949;28;20353;-73
2023/11/23 00:27:38;;;;;;;32.03;8.43;;;;;;;5.62;100.00;101723.13;6275128;28;20045;-72
2023/11/23 00:30:39;;;;;;;19.52;7.70;;;;;;;5.62;100.00;101714.44;6274950;28;20056;-73
2023/11/23 00:33:41;;;;;;;22.88;8.25;;;;;;;5.60;100.00;101710.13;6274949;28;20052;-71
2023/11/23 00:36:43;;;;;;;24.17;9.32;;;;;;;5.63;100.00;101708.34;6274869;28;20389;-72
2023/11/23 00:39:44;;;;;;;17.80;8.10;;;;;;;5.59;100.00;101700.59;6275028;28;20049;-73
2023/11/23 00:42:47;;;;;;;26.27;8.57;;;;;;;5.57;100.00;101704.09;6274691;28;20087;-74
2023/11/23 00:45:49;;;;;;;23.92;8.60;;;;;;;5.56;100.00;101702.38;6274658;28;20360;-73
2023/11/23 00:48:50;;;;;;;22.45;7.95;;;;;;;5.57;100.00;101693.69;6274899;28;20061;-73
2023/11/23 00:51:51;;;;;;;29.80;8.93;;;;;;;5.55;100.00;101700.69;6274930;28;20049;-73
2023/11/23 00:54:53;;;;;;;27.48;9.98;;;;;;;5.48;100.00;101699.91;6274631;28;20052;-72
2023/11/23 00:57:56;;;;;;;24.40;8.73;;;;;;;5.50;100.00;101702.50;6274860;28;20049;-73
2023/11/23 01:00:57;;;;;;;24.25;9.55;;;;;;;5.47;100.00;101690.38;6274745;28;20049;-73
2023/11/23 01:03:58;;;;;;;28.40;8.73;;;;;;;5.53;100.00;101685.03;6274498;28;20064;-73
2023/11/23 01:07:00;;;;;;;27.85;10.07;;;;;;;5.54;100.00;101691.09;6274304;28;20041;-73
2023/11/23 01:10:02;;;;;;;23.85;9.63;;;;;;;5.54;100.00;101689.38;6274550;28;20045;-71
2023/11/23 01:13:06;;;;;;;26.02;9.23;;;;;;;5.54;100.00;101678.97;6274497;28;20045;-73
2023/11/23 01:16:08;;;;;;;31.25;9.63;;;;;;;5.54;100.00;101683.28;6274480;28;20052;-72
2023/11/23 01:19:09;;;;;;;25.23;9.43;;;;;;;5.56;100.00;101671.97;6274661;28;20134;-73
2023/11/23 01:22:11;;;;;;;29.45;9.88;;;;;;;5.56;100.00;101673.72;6274127;28;20433;-72
2023/11/23 01:25:13;;;;;;;32.35;9.95;;;;;;;5.57;100.00;101675.41;6274878;28;20049;-73
2023/11/23 01:28:16;;;;;;;27.13;10.30;;;;;;;5.52;100.00;101670.28;6278621;28;20441;-74
2023/11/23 01:31:17;;;;;;;22.67;8.73;;;;;;;5.58;100.00;101674.53;6279046;28;20064;-72
2023/11/23 01:34:19;;;;;;;38.25;11.18;;;;;;;5.62;100.00;101649.25;6278675;28;20184;-73
2023/11/23 01:37:20;;;;;;;23.50;10.18;;;;;;;5.67;100.00;101658.72;6278327;28;20048;-73
2023/11/23 01:40:22;;;;;;;28.17;8.93;;;;;;;5.74;100.00;101651.66;6278649;28;20049;-73
2023/11/23 01:43:24;;;;;;;31.48;10.90;;;;;;;5.88;100.00;101640.97;6278396;28;20060;-73
2023/11/23 01:46:26;;;;;;;30.35;10.82;;;;;;;5.71;100.00;101636.06;6278301;28;20045;-72
2023/11/23 01:49:28;;;;;;;30.48;11.93;;;;;;;5.74;100.00;101638.63;6278349;28;20345;-72
2023/11/23 01:52:30;;;;;;;28.05;11.27;;;;;;;5.78;100.00;101650.72;6278189;28;20483;-73
2023/11/23 01:55:32;;;;;;;25.13;10.05;;;;;;;5.83;100.00;101635.84;6278260;28;20056;-73
2023/11/23 01:58:34;;;;;;;28.05;11.35;;;;;;;5.84;100.00;101642.75;6278215;28;20361;-73
2023/11/23 02:01:36;;;;;;;27.02;10.48;;;;;;;5.92;100.00;101646.13;6278077;28;20049;-72
2023/11/23 02:04:37;;;;;;;33.55;11.27;;;;;;;5.97;100.00;101644.28;6277709;28;20102;-73
2023/11/23 02:07:39;;;;;;;33.83;12.00;;;;;;;5.99;100.00;101632.03;6278348;28;20064;-73
2023/11/23 02:10:40;;;;;;;29.08;11.20;;;;;;;6.04;100.00;101630.22;6284910;28;20060;-73
2023/11/23 02:13:43;;;;;;;26.20;10.18;;;;;;;6.08;100.00;101625.78;6278919;28;20049;-73
2023/11/23 02:16:46;;;;;;;32.50;10.50;;;;;;;6.13;100.00;101629.16;6269348;28;20048;-72
2023/11/23 02:19:48;;;;;;;34.97;11.23;;;;;;;6.12;100.00;101617.00;6277112;28;20076;-72
2023/11/23 02:22:50;;;;;;;24.40;10.18;;;;;;;6.15;100.00;101613.47;6272582;28;20045;-72
2023/11/23 02:25:52;;;;;;;28.13;10.95;;;;;;;6.18;100.00;101609.06;6277807;28;20076;-72
2023/11/23 02:28:54;;;;;;;28.67;10.75;;;;;;;6.23;100.00;101606.34;6277543;28;20056;-72
2023/11/23 02:31:55;;;;;;;24.98;10.40;;;;;;;6.23;100.00;101596.78;6277588;28;20052;-73
2023/11/23 02:34:56;;;;;;;27.58;10.85;;;;;;;6.29;100.00;101603.59;6277141;28;20060;-72
2023/11/23 02:37:58;;;;;;;32.33;11.32;;;;;;;6.36;100.00;101597.38;6276762;28;20064;-72
2023/11/23 02:41:01;;;;;;;32.55;10.40;;;;;;;6.39;100.00;101591.19;6277267;28;20060;-72
2023/11/23 02:44:02;;;;;;;28.60;10.63;;;;;;;6.43;100.00;101590.25;6276659;28;20052;-72
2023/11/23 02:47:04;;;;;;;27.50;10.50;;;;;;;6.39;100.00;101596.44;6256938;28;20041;-72
2023/11/23 02:50:06;;;;;;;26.30;11.27;;;;;;;6.41;100.00;101592.03;6260096;28;20044;-72
2023/11/23 02:53:17;;;;;;;25.92;10.35;;;;;;;6.38;100.00;101582.50;6264467;28;20426;-71
2023/11/23 02:56:23;;;;;;;28.98;11.23;;;;;;;6.39;100.00;101581.63;6265267;28;20037;-72
2023/11/23 02:59:24;;;;;;;26.55;10.57;;;;;;;6.43;100.00;101587.63;6264193;28;20454;-72
2023/11/23 03:02:26;;;;;;;22.88;9.93;;;;;;;6.46;100.00;101567.53;6263301;28;20040;-73
2023/11/23 03:05:27;;;;;;;28.48;10.65;;;;;;;6.48;100.00;101559.66;6264270;28;20052;-73
2023/11/23 03:08:29;;;;;;;27.27;10.63;;;;;;;6.48;100.00;101554.44;6262621;28;20045;-73
2023/11/23 03:11:32;;;;;;;25.20;10.43;;;;;;;6.48;100.00;101544.84;6264465;28;20056;-73
2023/11/23 03:14:34;;;;;;;28.50;11.70;;;;;;;6.51;100.00;101538.72;6262126;28;20126;-73
2023/11/23 03:17:36;;;;;;;24.48;10.60;;;;;;;6.52;100.00;101537.81;6268018;28;20045;-73
2023/11/23 03:20:37;;;;;;;36.20;11.75;;;;;;;6.52;100.00;101528.22;6276305;28;20045;-72
2023/11/23 03:23:41;;;;;;;28.63;11.40;;;;;;;6.56;100.00;101524.66;6275229;28;20466;-72
2023/11/23 03:26:44;;;;;;;29.65;9.65;;;;;;;6.62;100.00;101526.25;6276069;28;20052;-73
2023/11/23 03:29:45;;;;;;;28.30;11.48;;;;;;;6.63;100.00;101524.47;6276017;28;20346;-73
2023/11/23 03:32:47;;;;;;;24.90;9.98;;;;;;;6.63;100.00;101527.09;6275890;28;20076;-73
2023/11/23 03:35:50;;;;;;;24.98;10.32;;;;;;;6.69;100.00;101500.84;6275640;28;20048;-73
2023/11/23 03:38:51;;;;;;;28.80;11.38;;;;;;;6.68;100.00;101517.41;6275781;28;20052;-73
2023/11/23 03:41:54;;;;;;;29.20;12.02;;;;;;;6.73;100.00;101511.19;6275677;28;20079;-73
2023/11/23 03:44:55;;;;;;;25.48;11.75;;;;;;;6.78;100.00;101513.69;6275527;28;20346;-73
2023/11/23 03:47:58;;;;;;;27.98;12.05;;;;;;;6.78;100.00;101498.84;6294371;22;20049;-76
2023/11/23 03:51:00;;;;;;;28.67;12.48;;;;;;;6.81;100.00;101506.63;6284548;28;20045;-79
2023/11/23 03:54:02;;;;;;;32.78;11.15;;;;;;;6.87;100.00;101508.22;6293028;28;20055;-80
2023/11/23 03:57:05;;;;;;;27.27;11.95;;;;;;;6.89;100.00;101497.72;6265528;28;20045;-81
2023/11/23 04:00:08;;;;;;;40.17;13.10;;;;;;;6.89;100.00;101513.38;6258987;28;20156;-79
2023/11/23 04:03:09;;;;;;;29.60;11.20;;;;;;;6.91;100.00;101490.72;6257217;28;20131;-82
2023/11/23 04:06:11;;;;;;;26.20;11.30;;;;;;;6.93;100.00;101499.34;6279908;28;20048;-84
2023/11/23 04:09:12;;;;;;;38.35;13.93;;;;;;;6.94;100.00;101494.06;6268029;28;20053;-80
2023/11/23 04:12:15;;;;;;;43.60;13.13;;;;;;;6.92;100.00;101501.09;6260753;28;20050;-79
2023/11/23 04:15:17;;;;;;;33.17;13.07;;;;;;;6.98;100.00;101498.31;6265652;28;20079;-77
2023/11/23 04:18:18;;;;;;;31.10;13.02;;;;;;;6.97;100.00;101491.41;6280991;28;20056;-81
2023/11/23 04:21:20;;;;;;;31.20;12.35;;;;;;;6.99;100.00;101500.03;6267811;28;20357;-85
2023/11/23 04:24:22;;;;;;;35.90;13.13;;;;;;;6.99;100.00;101486.13;6275470;28;20056;-81
2023/11/23 04:27:24;;;;;;;33.97;13.93;;;;;;;6.99;100.00;101476.50;6275155;28;20041;-79
2023/11/23 04:30:26;;;;;;;31.90;12.48;;;;;;;7.06;100.00;101485.91;6275137;28;20365;-79
2023/11/23 04:33:28;;;;;;;36.33;12.00;;;;;;;7.04;100.00;101486.84;6275276;28;20056;-82
2023/11/23 04:36:30;;;;;;;31.88;12.18;;;;;;;7.07;100.00;101492.84;6275215;28;20052;-79
2023/11/23 04:39:31;;;;;;;33.85;12.70;;;;;;;7.10;100.00;101478.84;6275292;28;20452;-82
2023/11/23 04:42:35;;;;;;;33.90;11.98;;;;;;;7.10;100.00;101486.69;6274898;28;20064;-80
2023/11/23 04:45:37;;;;;;;31.27;12.07;;;;;;;7.15;100.00;101483.97;6262790;28;20045;-75
2023/11/23 04:48:38;;;;;;;32.05;13.80;;;;;;;7.19;100.00;101480.38;6261805;28;20052;-80
2023/11/23 04:51:40;;;;;;;31.48;12.80;;;;;;;7.19;100.00;101473.38;6261970;28;20348;-79
2023/11/23 04:54:42;;;;;;;32.47;11.45;;;;;;;7.26;100.00;101474.06;6262273;28;20045;-79
2023/11/23 04:57:45;;;;;;;29.13;11.55;;;;;;;7.30;100.00;101489.63;6263450;28;20042;-79
2023/11/23 05:00:46;;;;;;;28.70;12.10;;;;;;;7.28;100.00;101469.66;6263899;28;20045;-81
2023/11/23 05:03:48;;;;;;;33.70;13.50;;;;;;;7.35;100.00;101472.03;6256616;28;20056;-81
2023/11/23 05:06:49;;;;;;;27.48;11.35;;;;;;;7.47;100.00;101470.84;6257543;28;20084;-78
2023/11/23 05:09:51;;;;;;;35.97;13.27;;;;;;;7.48;100.00;101454.25;6267215;28;20486;-78
2023/11/23 05:12:53;;;;;;;28.02;11.55;;;;;;;7.54;100.00;101468.88;6265232;28;20045;-80
2023/11/23 05:15:55;;;;;;;27.45;11.95;;;;;;;7.52;100.00;101458.47;6265928;28;20052;-78
2023/11/23 05:18:56;;;;;;;28.17;11.15;;;;;;;7.54;100.00;101454.09;6266570;28;20131;-80
2023/11/23 05:21:58;;;;;;;28.17;11.27;;;;;;;7.61;100.00;101457.34;6266207;28;20045;-80
2023/11/23 05:24:59;;;;;;;34.90;13.32;;;;;;;7.72;100.00;101444.84;6265805;28;20052;-79
2023/11/23 05:28:02;;;;;;;29.67;11.88;;;;;;;7.72;100.00;101430.88;6254263;28;20045;-80
2023/11/23 05:31:04;;;;;;;35.65;11.98;;;;;;;7.71;100.00;101426.53;6254240;28;20056;-81
2023/11/23 05:34:05;;;;;;;34.55;12.82;;;;;;;7.74;100.00;101423.84;6254097;28;20060;-80
2023/11/23 05:37:06;;;;;;;26.08;10.73;;;;;;;7.77;100.00;101427.22;6253792;28;20049;-80
2023/11/23 05:40:11;;;;;;;25.30;11.00;;;;;;;7.83;100.00;101434.03;6253833;28;20052;-78
2023/11/23 05:43:15;;;;;;;26.92;11.93;;;;;;;7.81;100.00;101431.47;6253877;28;20060;-80
2023/11/23 05:46:16;;;;;;;24.85;10.88;;;;;;;7.85;100.00;101425.22;6253796;28;20430;-80
2023/11/23 05:49:21;;;;;;;23.88;10.93;;;;;;;7.88;100.00;101432.13;6253652;28;20056;-83
2023/11/23 05:52:23;;;;;;;28.45;11.95;;;;;;;8.00;100.00;101428.28;6253825;28;20041;-79
2023/11/23 05:55:24;;;;;;;25.85;11.88;;;;;;;7.99;100.00;101429.16;6262633;28;20051;-81
2023/11/23 05:58:27;;;;;;;31.08;13.48;;;;;;;7.98;100.00;101415.22;6262856;28;20061;-79
2023/11/23 06:01:28;;;;;;;34.38;12.43;;;;;;;8.04;100.00;101420.28;6253350;28;20077;-79
2023/11/23 06:04:30;;;;;;;34.40;12.60;;;;;;;8.02;100.00;101426.44;6256725;28;20064;-81
2023/11/23 06:07:31;;;;;;;29.05;12.40;;;;;;;8.01;100.00;101422.97;6288479;28;20056;-82
2023/11/23 06:10:34;;;;;;;37.22;13.38;;;;;;;8.08;100.00;101418.41;6278778;28;20041;-80
2023/11/23 06:13:36;;;;;;;32.88;13.27;;;;;;;8.08;100.00;101414.03;6268794;28;20048;-81
2023/11/23 06:16:38;;;;;;;35.40;13.57;;;;;;;8.02;100.00;101400.28;6272087;28;20071;-81
2023/11/23 06:19:40;;;;;;;32.53;12.75;;;;;;;8.01;100.00;101395.97;6283890;28;20175;-82
2023/11/23 06:22:41;;;;;;;32.22;12.13;;;;;;;8.06;100.00;101391.44;6264577;28;20049;-79
2023/11/23 06:25:43;;;;;;;31.58;13.35;;;;;;;8.06;100.00;101379.19;6265808;28;20098;-79
2023/11/23 06:28:45;;;;;;;29.95;13.38;;;;;;;8.09;100.00;101375.63;6263647;28;20046;-80
2023/11/23 06:31:47;;;;;;;36.92;14.07;;;;;;;8.09;100.00;101386.94;6265018;28;20441;-79
2023/11/23 06:34:49;;;;;;;31.15;12.88;;;;;;;8.13;100.00;101385.09;6264311;28;20111;-80
2023/11/23 06:37:51;;;;;;;30.77;12.98;;;;;;;8.19;100.00;101384.88;6275486;28;20045;-74
2023/11/23 06:40:52;;;;;;;31.85;13.57;;;;;;;8.24;100.00;101387.34;6268813;28;20060;-75
2023/11/23 06:43:55;;;;;;;31.00;12.82;;;;;;;8.21;100.00;101380.44;6277232;28;20053;-77
2023/11/23 06:46:57;;;;;;;31.35;12.95;;;;;;;8.22;100.00;101374.31;6276901;28;20048;-76
2023/11/23 06:49:58;;;;;;;33.42;12.88;;;;;;;8.22;100.00;101382.16;6277203;28;20134;-75
2023/11/23 06:53:00;;;;;;;27.08;12.82;;;;;;;8.31;100.00;101371.38;6276864;28;20453;-76
2023/11/23 06:56:02;;;;;;;26.45;12.50;;;;;;;8.33;100.00;101368.72;6276822;28;20049;-74
2023/11/23 06:59:06;;;;;;;29.23;12.65;;;;;;;8.36;100.00;101369.50;6276952;28;20126;-76
2023/11/23 07:02:07;;;;;;;33.75;13.23;;;;;;;8.43;100.00;101375.38;6269522;28;20044;-76
2023/11/23 07:05:11;;;;;;;41.33;13.65;;;;;;;8.46;100.00;101363.94;6274024;28;20045;-76
2023/11/23 07:08:12;;;;;;;39.22;14.35;;;;;;;8.47;100.00;101365.66;6275694;28;20354;-74
2023/11/23 07:11:18;;;;;;;37.80;13.75;;;;;;;8.54;100.00;101362.78;6273686;28;20049;-74
2023/11/23 07:14:21;;;;;;;32.53;13.95;;;;;;;8.54;100.00;101360.16;6274713;28;20049;-75
2023/11/23 07:17:24;;;;;;;31.48;14.15;;;;;;;8.58;100.00;101348.66;6275709;28;20045;-75
2023/11/23 07:20:26;;;;;;;29.17;12.65;;;;;;;8.59;100.00;101334.63;6275919;28;20464;-75
2023/11/23 07:23:28;;;;;;;42.88;15.40;;;;;;;8.56;100.00;101326.88;6271311;28;20334;-74
2023/11/23 07:26:31;;;;;;;28.52;12.95;;;;;;;8.60;100.00;101331.09;6275773;28;20054;-76
2023/11/23 07:29:34;;;;;;;31.75;14.00;;;;;;;8.61;100.00;101327.56;6260243;28;20088;-74
2023/11/23 07:32:36;;;;;;;29.67;13.75;;;;;;;8.63;100.00;101323.16;6282066;28;20053;-75
2023/11/23 07:35:38;;;;;;;36.10;14.48;;;;;;;8.71;100.00;101315.00;6276370;28;20091;-76
2023/11/23 07:38:40;;;;;;;36.30;14.75;;;;;;;8.68;100.00;101317.75;6272981;28;20060;-76
2023/11/23 07:41:42;;;;;;;32.38;14.70;;;;;;;8.71;100.00;101316.75;6263222;28;20057;-75
2023/11/23 07:44:46;;;;;;;35.15;14.38;;;;;;;8.73;100.00;101318.41;6263578;28;20357;-75
2023/11/23 07:47:48;;;;;;;42.22;15.43;;;;;;;8.75;100.00;101303.50;6260098;28;20156;-77
2023/11/23 07:50:49;;;;;;;41.53;15.52;;;;;;;8.82;100.00;101309.38;6262775;28;20458;-76
2023/11/23 07:53:50;;;;;;;30.58;13.32;;;;;;;8.81;100.00;101310.25;6268801;28;20060;-77
2023/11/23 07:56:53;;;;;;;33.50;13.30;;;;;;;8.95;100.00;101308.00;6269124;28;20064;-76
2023/11/23 07:59:57;;;;;;;30.77;12.98;;;;;;;8.95;100.00;101297.53;6257307;28;20048;-82
2023/11/23 08:02:59;;;;;;;33.45;14.80;;;;;;;9.01;100.00;101302.53;6251931;28;20045;-80
2023/11/23 08:06:00;;;;;;;35.72;14.88;;;;;;;9.06;100.00;101302.34;6249500;28;20438;-83
2023/11/23 08:09:03;;;;;;;24.92;11.65;;;;;;;9.15;100.00;101307.25;6253775;28;20055;-77
2023/11/23 08:12:06;;;;;;;32.17;13.05;;;;;;;9.20;100.00;101299.19;6267584;28;20044;-83
2023/11/23 08:15:10;;;;;;;22.23;10.77;;;;;;;9.23;100.00;101299.94;6265776;28;20400;-83
2023/11/23 08:18:12;;;;;;;28.27;12.23;;;;;;;9.32;100.00;101301.34;6274965;28;20053;-82
2023/11/23 08:21:13;;;;;;;25.90;12.32;;;;;;;9.36;100.00;101290.69;6268118;28;20449;-83
2023/11/23 08:24:15;;;;;;;27.35;11.00;;;;;;;9.47;100.00;101295.47;6269943;28;20057;-83
2023/11/23 08:27:16;;;;;;;22.42;10.68;;;;;;;9.60;100.00;101298.47;6265990;28;20068;-81
2023/11/23 08:30:21;;;;;;;23.30;10.27;;;;;;;9.68;100.00;101288.53;6267789;28;20068;-82
2023/11/23 08:33:23;;;;;;;23.85;10.60;;;;;;;9.68;100.00;101277.19;6264218;28;20045;-82
2023/11/23 08:36:25;;;;;;;25.05;8.77;;;;;;;9.69;100.00;101278.88;6274857;28;20049;-81
2023/11/23 08:39:27;;;;;;;21.75;8.85;;;;;;;9.79;100.00;101253.97;6266243;28;20053;-79
2023/11/23 08:42:29;;;;;;;19.33;8.85;;;;;;;9.78;100.00;101237.34;6274704;28;20048;-82
2023/11/23 08:45:32;;;;;;;19.13;8.38;;;;;;;9.89;100.00;101239.50;6284473;28;20060;-82
2023/11/23 08:48:33;;;;;;;17.77;7.30;;;;;;;10.00;100.00;101228.56;6270118;28;20053;-82
2023/11/23 08:51:35;;;;;;;20.77;7.68;;;;;;;10.03;100.00;101205.63;6265023;28;20072;-82
2023/11/23 08:54:37;;;;;;;23.73;7.55;;;;;;;9.99;100.00;101214.59;6278126;28;20441;-82
2023/11/23 08:57:40;;;;;;;23.35;7.55;;;;;;;10.08;100.00;101214.19;6268599;28;20056;-79
2023/11/23 09:00:42;;;;;;;14.85;6.78;;;;;;;10.12;100.00;101228.03;6276624;28;20464;-79
2023/11/23 09:03:44;;;;;;;13.98;6.05;;;;;;;10.11;100.00;101235.03;6266774;28;20053;-79
2023/11/23 09:06:45;;;;;;;17.33;6.97;;;;;;;10.19;100.00;101229.47;6274647;28;20049;-76
2023/11/23 09:09:47;;;;;;;17.83;6.00;;;;;;;10.26;100.00;101214.31;6276714;28;20076;-72
2023/11/23 09:12:49;;;;;;;10.50;5.03;;;;;;;10.22;100.00;101221.47;6265991;28;20049;-78
2023/11/23 09:15:53;;;;;;;12.52;5.82;;;;;;;10.29;100.00;101204.53;6277279;28;20045;-78
2023/11/23 09:18:55;;;;;;;11.32;5.00;;;;;;;10.37;100.00;101185.81;6275295;28;20047;-79
2023/11/23 09:21:58;;;;;;;9.82;6.40;;;;;;;10.36;100.00;101200.72;6262557;28;20055;-80
2023/11/23 09:24:59;;;;;;;13.90;4.65;;;;;;;10.35;100.00;101180.59;6276712;28;20056;-78
2023/11/23 09:28:01;;;;;;;13.43;4.55;;;;;;;10.40;100.00;101186.53;6273478;28;20055;-75
2023/11/23 09:31:04;;;;;;;9.85;4.80;;;;;;;10.47;100.00;101199.38;6267521;28;20079;-76
2023/11/23 09:34:05;;;;;;;12.75;4.80;;;;;;;10.45;100.00;101172.31;6274175;28;20064;-74
2023/11/23 09:37:07;;;;;;;8.65;4.13;;;;;;;10.46;100.00;101160.88;6271600;28;20053;-76
2023/11/23 09:40:12;;;;;;;10.15;4.78;;;;;;;10.49;100.00;101163.34;6270173;28;20134;-77
2023/11/23 09:43:15;;;;;;;7.57;4.07;;;;;;;10.55;100.00;101168.34;6261346;28;20065;-79
2023/11/23 09:46:19;;;;;;;11.30;4.20;;;;;;;10.60;100.00;101161.94;6268864;28;20052;-78
2023/11/23 09:49:21;;;;;;;9.88;4.57;;;;;;;10.63;100.00;101155.69;6266272;28;20053;-79
2023/11/23 09:52:22;;;;;;;13.05;3.45;;;;;;;10.63;100.00;101151.28;6262897;28;20057;-77
2023/11/23 09:55:26;;;;;;;8.98;5.47;;;;;;;10.64;100.00;101146.88;6263479;28;20108;-78
2023/11/23 09:58:27;;;;;;;15.30;3.83;;;;;;;10.60;100.00;101148.78;6259090;28;20430;-79
2023/11/23 10:01:33;;;;;;;7.65;4.30;;;;;;;10.62;100.00;101159.22;6273850;28;20049;-78
2023/11/23 10:04:34;;;;;;;10.18;3.22;;;;;;;10.74;100.00;101155.19;6268126;28;20355;-77
2023/11/23 10:07:36;;;;;;;7.60;3.50;;;;;;;10.74;100.00;101161.28;6277461;28;20053;-79
2023/11/23 10:10:37;;;;;;;7.85;3.78;;;;;;;10.79;100.00;101150.56;6277971;28;20049;-78
2023/11/23 10:13:39;;;;;;;6.55;3.25;;;;;;;10.76;100.00;101142.81;6277605;28;20049;-78
2023/11/23 10:16:42;;;;;;;13.18;2.72;;;;;;;10.76;100.00;101140.19;6277587;28;20049;-78
2023/11/23 10:19:44;;;;;;;7.85;2.80;;;;;;;10.75;100.00;101134.06;6268367;28;20053;-76
2023/11/23 10:22:46;;;;;;;8.82;3.15;;;;;;;10.79;100.00;101121.63;6272883;28;20050;-78
2023/11/23 10:25:48;;;;;;;9.00;3.00;;;;;;;10.84;100.00;101112.59;6267486;28;20049;-78
2023/11/23 10:28:49;;;;;;;8.00;2.72;;;;;;;10.84;100.00;101115.22;6275106;28;20057;-77
2023/11/23 10:31:53;;;;;;;6.03;2.60;;;;;;;10.90;100.00;101119.31;6273458;28;20453;-77
2023/11/23 10:34:56;;;;;;;10.77;2.28;;;;;;;10.88;100.00;101103.63;6282607;28;21187;-78
2023/11/23 10:37:59;;;;;;;5.30;2.38;;;;;;;10.91;100.00;101092.13;6274400;28;20048;-77
2023/11/23 10:41:01;;;;;;;6.65;2.90;;;;;;;10.91;100.00;101078.97;6260068;28;20049;-80
2023/11/23 10:44:03;;;;;;;5.28;1.77;;;;;;;10.96;100.00;101076.13;6257581;28;20071;-79
2023/11/23 10:47:09;;;;;;;4.07;2.15;;;;;;;10.91;100.00;101071.09;6268108;28;20052;-78
2023/11/23 10:50:11;;;;;;;9.05;2.50;;;;;;;10.96;100.00;101063.81;6273867;28;20045;-78
2023/11/23 10:53:15;;;;;;;4.93;1.92;;;;;;;11.01;100.00;101050.44;6267359;28;20048;-77
2023/11/23 10:56:21;;;;;;;7.93;2.00;;;;;;;11.04;100.00;101045.88;6263915;28;20396;-79
2023/11/23 10:59:24;;;;;;;6.07;2.22;;;;;;;11.01;100.00;101045.19;6260253;28;20046;-79
2023/11/23 11:02:28;;;;;;;11.30;2.67;;;;;;;10.98;100.00;101058.47;6270575;28;20049;-81
2023/11/23 11:05:32;;;;;;;5.75;2.03;;;;;;;11.02;100.00;101020.59;6264513;28;20114;-79
2023/11/23 11:08:33;;;;;;;7.85;1.90;;;;;;;11.04;100.00;101027.47;6273961;28;20456;-81
2023/11/23 11:11:36;;;;;;;5.15;2.75;;;;;;;11.07;100.00;100998.38;6256704;28;20041;-79
2023/11/23 11:14:39;;;;;;;5.95;2.17;;;;;;;11.06;100.00;100987.94;6256786;28;20065;-78
2023/11/23 11:17:45;;;;;;;6.50;1.90;;;;;;;11.13;100.00;100982.28;6272343;28;20064;-78
2023/11/23 11:20:59;;;;;;;6.88;2.13;;;;;;;11.16;100.00;100995.25;6272120;28;20357;-76
2023/11/23 11:24:01;;;;;;;12.80;2.30;;;;;;;11.15;100.00;101001.47;6279754;28;20053;-75
2023/11/23 11:27:02;;;;;;;6.20;1.92;;;;;;;11.31;100.00;101016.44;6271211;28;20056;-76
2023/11/23 11:30:04;;;;;;;5.63;1.67;;;;;;;11.34;100.00;100998.72;6276894;28;20041;-77
2023/11/23 11:33:11;;;;;;;4.22;1.85;;;;;;;11.36;100.00;100991.63;6275960;28;20436;-77
2023/11/23 11:36:12;;;;;;;6.40;1.73;;;;;;;11.34;100.00;100984.72;6307697;22;20049;-73
2023/11/23 11:39:15;;;;;;;6.32;1.70;;;;;;;11.32;100.00;100992.69;6284089;28;20071;-74
2023/11/23 11:42:19;;;;;;;9.25;1.85;;;;;;;11.38;100.00;100994.16;6284985;28;20364;-73
2023/11/23 11:45:20;;;;;;;3.28;1.42;;;;;;;11.34;100.00;100988.19;6278694;28;20365;-73
2023/11/23 11:48:23;;;;;;;4.82;1.30;;;;;;;11.36;100.00;100990.75;6278490;28;20045;-72
2023/11/23 11:51:25;;;;;;;4.88;1.65;;;;;;;11.35;100.00;100987.25;6279863;28;20373;-72
2023/11/23 11:54:27;;;;;;;9.48;1.80;;;;;;;11.39;100.00;100978.28;6277695;28;20044;-72
2023/11/23 11:57:38;;;;;;;4.72;1.75;;;;;;;11.39;100.00;100980.06;6266136;28;20052;-72
2023/11/23 12:00:44;;;;;;;8.85;1.52;;;;;;;11.38;100.00;100994.16;6265505;28;20053;-72
2023/11/23 12:03:47;;;;;;;5.82;1.50;;;;;;;11.33;100.00;100989.13;6264738;28;20049;-72
2023/11/23 12:06:49;;;;;;;8.63;2.00;;;;;;;11.46;100.00;100965.66;6270405;28;20068;-73
2023/11/23 12:09:54;;;;;;;6.93;1.98;;;;;;;11.41;100.00;100967.69;6284815;28;20045;-72
2023/11/23 12:12:55;;;;;;;9.98;1.60;;;;;;;11.39;100.00;100966.91;6266941;28;20059;-72
2023/11/23 12:15:57;;;;;;;8.82;2.47;;;;;;;11.46;100.00;100964.81;6279610;28;20068;-73
2023/11/23 12:18:59;;;;;;;6.97;1.65;;;;;;;11.42;100.00;100967.59;6269622;28;20041;-72
2023/11/23 12:22:02;;;;;;;7.32;1.92;;;;;;;11.47;100.00;100959.44;6268069;28;20037;-72
2023/11/23 12:25:06;;;;;;;5.20;1.50;;;;;;;11.43;100.00;100950.88;6274176;28;20056;-73
2023/11/23 12:28:12;;;;;;;2.70;1.58;;;;;;;11.42;100.00;100957.06;6279086;28;20194;-73
2023/11/23 12:31:13;;;;;;;4.25;1.80;;;;;;;11.44;100.00;100946.44;6278607;28;20056;-73
2023/11/23 12:34:16;;;;;;;5.65;1.75;;;;;;;11.44;100.00;100917.50;6267087;28;20059;-72
2023/11/23 12:37:18;;;;;;;3.70;1.25;;;;;;;11.37;100.00;100910.88;6278311;28;20051;-72
2023/11/23 12:40:20;;;;;;;4.70;1.85;;;;;;;11.43;100.00;100895.59;6282719;28;20624;-72
2023/11/23 12:43:22;;;;;;;3.75;2.10;;;;;;;11.40;100.00;100882.63;6279359;28;20063;-73
2023/11/23 12:46:24;;;;;;;7.00;2.10;;;;;;;11.42;100.00;100877.28;6255707;28;20405;-74
2023/11/23 12:49:28;;;;;;;7.80;1.80;;;;;;;11.55;100.00;100870.41;6269841;28;20052;-73
2023/11/23 12:52:32;;;;;;;4.10;2.15;;;;;;;11.59;100.00;100871.94;6275454;28;20349;-73
2023/11/23 12:55:34;;;;;;;6.38;1.75;;;;;;;11.55;100.00;100849.34;6276987;28;20049;-72
2023/11/23 12:58:37;;;;;;;4.20;1.58;;;;;;;11.53;100.00;100863.53;6261499;28;20378;-72
2023/11/23 13:01:39;;;;;;;5.35;2.15;;;;;;;11.49;100.00;100876.03;6264905;28;20138;-71
2023/11/23 13:04:41;;;;;;;2.85;1.83;;;;;;;11.51;100.00;100886.44;6263256;28;20049;-73
2023/11/23 13:07:44;;;;;;;8.85;2.03;;;;;;;11.51;100.00;100875.94;6271893;28;20056;-71
2023/11/23 13:10:45;;;;;;;5.25;2.13;;;;;;;11.45;100.00;100855.22;6260442;28;20052;-72
2023/11/23 13:13:48;;;;;;;5.15;1.98;;;;;;;11.48;100.00;100852.41;6273713;28;20049;-74
2023/11/23 13:16:49;;;;;;;9.80;3.35;;;;;;;11.46;100.00;100857.75;6254142;28;20052;-73
2023/11/23 13:19:52;;;;;;;11.60;1.98;;;;;;;11.48;100.00;100849.75;6267481;28;20373;-72
2023/11/23 13:22:54;;;;;;;10.50;2.28;;;;;;;11.51;100.00;100844.34;6269726;28;20052;-72
2023/11/23 13:25:59;;;;;;;5.10;2.22;;;;;;;11.66;100.00;100844.31;6270511;28;20057;-72
2023/11/23 13:29:01;;;;;;;8.57;2.05;;;;;;;11.64;100.00;100827.78;6277493;28;20350;-73
2023/11/23 13:32:04;;;;;;;7.75;1.70;;;;;;;11.65;100.00;100823.34;6274204;28;20047;-73
2023/11/23 13:35:07;;;;;;;5.47;2.05;;;;;;;11.62;100.00;100836.69;6265155;28;20517;-71
2023/11/23 13:38:10;;;;;;;9.35;1.90;;;;;;;11.53;100.00;100819.63;6274183;28;20202;-74
2023/11/23 13:41:11;;;;;;;8.18;1.60;;;;;;;11.45;100.00;100821.84;6278245;28;20051;-73
2023/11/23 13:44:13;;;;;;;5.30;1.83;;;;;;;11.35;100.00;100823.28;6283649;28;20064;-75
2023/11/23 13:47:16;;;;;;;10.85;2.15;;;;;;;11.22;100.00;100814.38;6282640;28;20437;-75
2023/11/23 13:50:18;;;;;;;8.13;2.25;;;;;;;11.04;100.00;100809.19;6277514;28;20044;-72